Flight Track Log - Related Links

Times and Time Zones

All times are in EDT time to prevent confusion due to time zone crossing. See the LBQ920 flight status page for this flight to view local times or setup timezone preferences in your user account.

Time Position Orientation Groundspeed Altitude Reporting Facility
EDT Latitude Longitude Course Direction KTS MPH feet Rate Location/Type
Thu 01:15:10 AM 39.0167 -77.4667 38° Northeast 178 205 4,000  Level Potomac TRACON
Thu 01:16:10 AM 39.0500 -77.4333 49° Northeast 176 203 5,600 1,587 Climbing Potomac TRACON
Thu 01:17:11 AM 39.0833 -77.3833 49° Northeast 186 214 7,200 1,587 Climbing Potomac TRACON
Thu 01:18:11 AM 39.1167 -77.3333 38° Northeast 183 211 8,800 939 Climbing Potomac TRACON
Thu 01:19:06 AM 39.1667 -77.2833 57° Northeast 211 243 9,000 104 Climbing Potomac TRACON
Thu 01:20:06 AM 39.2000 -77.2167 46° Northeast 237 273 9,000  Level Potomac TRACON
Thu 01:21:07 AM 39.2500 -77.1500 57° Northeast 247 284 9,000  Level Potomac TRACON
Thu 01:22:07 AM 39.2833 -77.0833 52° Northeast 248 285 9,000  Level Potomac TRACON
Thu 01:23:08 AM 39.3333 -77.0000 46° Northeast 248 285 9,000  Level Potomac TRACON
Thu 01:24:08 AM 39.3833 -76.9333 57° Northeast 246 283 9,000  Level Potomac TRACON
Thu 01:25:09 AM 39.4167 -76.8667 46° Northeast 247 284 9,000  Level Potomac TRACON
Thu 01:26:09 AM 39.4667 -76.8000 57° Northeast 247 284 9,000 -248 Level Potomac TRACON
Thu 01:27:10 AM 39.5000 -76.7333 46° Northeast 251 289 8,500 -595 Descending Potomac TRACON
Thu 01:28:10 AM 39.5500 -76.6667 52° Northeast 265 305 7,800 -744 Descending Potomac TRACON
Thu 01:29:11 AM 39.6000 -76.5833 46° Northeast 269 310 7,000 -397 Descending Potomac TRACON
Thu 01:30:11 AM 39.6500 -76.5167 46° Northeast 260 299 7,000  Level Potomac TRACON
Thu 01:31:12 AM 39.7000 -76.4500 62° Northeast 252 290 7,000  Level Potomac TRACON
Thu 01:31:54 AM 39.7314 -76.3744 51° Northeast 254 292 7,000  Level FAA TRACON SMA TRACON (SMA)
Thu 01:32:34 AM 39.7586 -76.3300 49° Northeast 242 278 7,000  Level FAA TRACON SMA TRACON (SMA)
Thu 01:33:13 AM 39.7872 -76.2867 51° Northeast 253 291 7,000  Level FAA TRACON SMA TRACON (SMA)
Thu 01:33:54 AM 39.8178 -76.2375 49° Northeast 253 291 7,000  Level FAA TRACON SMA TRACON (SMA)
Thu 01:34:34 AM 39.8503 -76.1892 52° Northeast 252 290 7,000  Level FAA TRACON SMA TRACON (SMA)
Thu 01:35:14 AM 39.8797 -76.1394 51° Northeast 254 292 7,000  Level FAA TRACON SMA TRACON (SMA)
Thu 01:35:54 AM 39.9072 -76.0944 51° Northeast 254 292 7,000  Level FAA TRACON SMA TRACON (SMA)
Thu 01:36:33 AM 39.9378 -76.0458 51° Northeast 255 293 7,000  Level FAA TRACON SMA TRACON (SMA)
Thu 01:37:14 AM 39.9689 -75.9961 51° Northeast 254 292 7,000  Level FAA TRACON SMA TRACON (SMA)
Thu 01:37:57 AM 39.9997 -75.9467 51° Northeast 256 295 7,000  Level FAA TRACON SMA TRACON (SMA)
Thu 01:38:34 AM 40.0281 -75.9017 57° Northeast 256 295 7,000 -468 Level FAA TRACON SMA TRACON (SMA)
Thu 01:39:14 AM 40.0553 -75.8461 69° East 285 328 6,400 -900 Descending FAA TRACON SMA TRACON (SMA)
Thu 01:39:54 AM 40.0725 -75.7864 71° East 283 326 5,800 -975 Descending FAA TRACON SMA TRACON (SMA)
Thu 01:40:34 AM 40.0906 -75.7189 70° East 284 327 5,100 -975 Descending FAA TRACON SMA TRACON (SMA)
Thu 01:41:14 AM 40.1069 -75.6608 68° East 278 320 4,500 -975 Descending FAA TRACON SMA TRACON (SMA)
Thu 01:41:54 AM 40.1269 -75.5972 67° East 272 313 3,800 -975 Descending FAA TRACON SMA TRACON (SMA)
Thu 01:42:34 AM 40.1458 -75.5397 63° Northeast 259 298 3,200 -600 Descending FAA TRACON SMA TRACON (SMA)
Thu 01:43:14 AM 40.1675 -75.4833 65° Northeast 243 280 3,000 -150 Descending FAA TRACON SMA TRACON (SMA)
Thu 01:43:54 AM 40.1847 -75.4344 67° East 241 277 3,000 -375 Level FAA TRACON SMA TRACON (SMA)
Thu 01:44:34 AM 40.2011 -75.3850 355° North 201 231 2,500 -750 Descending FAA TRACON SMA TRACON (SMA)
Thu 01:45:14 AM 40.2292 -75.3883 306° West 187 215 2,000 -225 Descending FAA TRACON SMA TRACON (SMA)
Thu 01:45:54 AM 40.2464 -75.4197 272° West 152 175 2,200 -75 Climbing FAA TRACON SMA TRACON (SMA)
Thu 01:46:34 AM 40.2472 -75.4558 265° West 145 167 1,900 -750 Descending FAA TRACON SMA TRACON (SMA)
Thu 01:47:14 AM 40.2453 -75.4844 264° West 125 144 1,200 -825 Descending FAA TRACON SMA TRACON (SMA)
Thu 01:47:54 AM 40.2431 -75.5131 265° West 106 122 800 -300 Descending FAA TRACON SMA TRACON (SMA)
Thu 01:48:34 AM 40.2417 -75.5342 360° North 87 100 800  Level FAA TRACON SMA TRACON (SMA)
Thu 01:49:14 AM 40.2417 -75.5342 360° North 87 100 800  Level FAA TRACON SMA TRACON (SMA)
Thu 01:49:54 AM 40.2417 -75.5342 360° North 87 100 800  Level FAA TRACON SMA TRACON (SMA)
Thu 01:50:34 AM 40.2417 -75.5342 360° North 87 100 800  Level FAA TRACON SMA TRACON (SMA)
Thu 01:51:15 AM 40.2417 -75.5342 360° North 87 100 800  Level FAA TRACON SMA TRACON (SMA)
Thu 01:51:54 AM 40.2417 -75.5342 360° North 87 100 800  Level FAA TRACON SMA TRACON (SMA)
Thu 01:52:34 AM 40.2417 -75.5342 289° West 87 100 800 140 Level FAA TRACON SMA TRACON (SMA)
Thu 02:01:54 AM 40.2603 -75.6039 306° West 157 181 2,200 220 Climbing FAA TRACON SMA TRACON (SMA)
Thu 02:02:34 AM 40.2783 -75.6361 288° West 173 199 3,000 600 Climbing FAA TRACON SMA TRACON (SMA)
Thu 02:03:14 AM 40.2897 -75.6811 292° West 198 228 3,000  Level FAA TRACON SMA TRACON (SMA)
Thu 02:03:55 AM 40.3025 -75.7222 292° West 200 230 3,000  Level FAA TRACON SMA TRACON (SMA)
Thu 02:04:34 AM 40.3175 -75.7706 292° West 206 237 3,000  Level FAA TRACON SMA TRACON (SMA)
Thu 02:05:15 AM 40.3328 -75.8200 293° West 211 243 3,000 72 Level FAA TRACON SMA TRACON (SMA)
Thu 02:05:57 AM 40.3417 -75.8469 115° Southeast 211 243 3,100 143 Climbing FAA TRACON SMA TRACON (SMA)
Thu 02:13:15 AM 40.1249 -75.2341 115° Southeast  Level Estimated

Login

Don't have an account? Register now (free) for customized features, flight alerts, and more!